Time;durP1;ratioP1;P1;durP2;ratioP2;P2;SDS_P1;SDS_P2;PMS_P1;PMS_P2;Temp;Humidity;BMP_temperature;BMP_pressure;BME280_temperature;BME280_humidity;BME280_pressure;Samples;Min_cycle;Max_cycle;Signal;HPM_P1;HPM_P2
2021/12/02 00:00:49;;;;;;;;;;;;;;;;;;2065432;28;1220;-86
2021/12/02 00:01:51;;;;;;;;;;;;;;;;;;2057894;28;1256;-86
2021/12/02 00:02:53;;;;;;;;;;;;;;;;;;2065835;28;998;-86
2021/12/02 00:03:55;;;;;;;;;;;;;;;;;;2065531;28;1209;-88
2021/12/02 00:04:57;;;;;;;;;;;;;;;;;;2057814;28;1216;-87
2021/12/02 00:05:57;;;;;;;;;;;;;;;;;;2065933;28;1007;-86
2021/12/02 00:06:59;;;;;;;;;;;;;;;;;;2058798;28;1223;-85
2021/12/02 00:08:03;;;;;;;;;;;;;;;;;;2058376;28;1240;-85
2021/12/02 00:09:08;;;;;;;;;;;;;;;;;;2057809;28;1283;-87
2021/12/02 00:10:10;;;;;;;;;;;;;;;;;;2050061;28;1279;-86
2021/12/02 00:11:11;;;;;;;;;;;;;;;;;;2050209;28;1954;-87
2021/12/02 00:12:13;;;;;;;;;;;;;;;;;;2065865;28;969;-86
2021/12/02 00:13:14;;;;;;;;;;;;;;;;;;2065865;28;1287;-86
2021/12/02 00:14:22;;;;;;;;;;;;;;;;;;2057666;28;1351;-86
2021/12/02 00:15:25;;;;;;;;;;;;;;;;;;2058630;28;1237;-86
2021/12/02 00:16:34;;;;;;;;;;;;;;;;;;2068072;28;1104;-87
2021/12/02 00:17:41;;;;;;;;;;;;;;;;;;2065653;28;1213;-86
2021/12/02 00:21:26;;;;;;;;;;;;;;;;;;2065608;28;1309;-86
2021/12/02 00:22:29;;;;;;;;;;;;;;;;;;2057802;28;1214;-86
2021/12/02 00:23:34;;;;;;;;;;;;;;;;;;2058138;28;1337;-86
2021/12/02 00:24:38;;;;;;;;;;;;;;;;;;2059135;28;1374;-86
2021/12/02 00:25:40;;;;;;;;;;;;;;;;;;2059724;28;1097;-85
2021/12/02 00:26:49;;;;;;;;;;;;;;;;;;2063821;28;2019;-86
2021/12/02 00:27:59;;;;;;;;;;;;;;;;;;2068772;28;1319;-86
2021/12/02 00:29:02;;;;;;;;;;;;;;;;;;2067174;28;1342;-85
2021/12/02 00:30:05;;;;;;;;;;;;;;;;;;2066988;28;1228;-86
2021/12/02 00:31:10;;;;;;;;;;;;;;;;;;2067115;28;1915;-85
2021/12/02 00:32:12;;;;;;;;;;;;;;;;;;2059423;28;1225;-86
2021/12/02 00:33:13;;;;;;;;;;;;;;;;;;2059452;28;1154;-85
2021/12/02 00:34:15;;;;;;;;;;;;;;;;;;2058910;28;1221;-84
2021/12/02 00:35:18;;;;;;;;;;;;;;;;;;2059220;28;1298;-85
2021/12/02 00:36:24;;;;;;;;;;;;;;;;;;2067270;28;1359;-84
2021/12/02 00:37:27;;;;;;;;;;;;;;;;;;2066943;28;1337;-85
2021/12/02 00:38:30;;;;;;;;;;;;;;;;;;2067260;28;1204;-86
2021/12/02 00:39:31;;;;;;;;;;;;;;;;;;2067086;28;1291;-85
2021/12/02 00:40:35;;;;;;;;;;;;;;;;;;2059204;28;1341;-86
2021/12/02 00:41:35;;;;;;;;;;;;;;;;;;2067377;28;2020;-86
2021/12/02 00:42:39;;;;;;;;;;;;;;;;;;2075533;28;1159;-86
2021/12/02 00:43:40;;;;;;;;;;;;;;;;;;2075188;28;1216;-86
2021/12/02 00:44:42;;;;;;;;;;;;;;;;;;2075144;28;1225;-85
2021/12/02 00:45:44;;;;;;;;;;;;;;;;;;2059103;28;1240;-86
2021/12/02 00:46:46;;;;;;;;;;;;;;;;;;2067234;28;1334;-86
2021/12/02 00:47:48;;;;;;;;;;;;;;;;;;2067179;28;1194;-86
2021/12/02 00:48:51;;;;;;;;;;;;;;;;;;2067074;28;1114;-85
2021/12/02 00:49:53;;;;;;;;;;;;;;;;;;2067194;28;1208;-85
2021/12/02 00:50:54;;;;;;;;;;;;;;;;;;2067098;28;1340;-86
2021/12/02 00:51:57;;;;;;;;;;;;;;;;;;2066699;28;1989;-86
2021/12/02 00:52:59;;;;;;;;;;;;;;;;;;2059059;28;1345;-86
2021/12/02 00:54:03;;;;;;;;;;;;;;;;;;2067192;28;1152;-86
2021/12/02 00:55:04;;;;;;;;;;;;;;;;;;2067047;28;1313;-86
2021/12/02 00:56:14;;;;;;;;;;;;;;;;;;2066909;28;1280;-88
2021/12/02 00:57:19;;;;;;;;;;;;;;;;;;2073322;28;1233;-88
2021/12/02 00:58:23;;;;;;;;;;;;;;;;;;2058863;28;1210;-87
2021/12/02 00:59:30;;;;;;;;;;;;;;;;;;2059384;28;1369;-87
2021/12/02 01:00:33;;;;;;;;;;;;;;;;;;2059820;28;1215;-87
2021/12/02 01:01:38;;;;;;;;;;;;;;;;;;2073944;28;1353;-87
2021/12/02 01:02:48;;;;;;;;;;;;;;;;;;2082284;28;1303;-88
2021/12/02 01:03:51;;;;;;;;;;;;;;;;;;2067673;28;1225;-87
2021/12/02 01:04:56;;;;;;;;;;;;;;;;;;2075105;28;1225;-87
2021/12/02 01:06:00;;;;;;;;;;;;;;;;;;2082603;28;1294;-87
2021/12/02 01:07:05;;;;;;;;;;;;;;;;;;2067409;28;1232;-87
2021/12/02 01:08:06;;;;;;;;;;;;;;;;;;2067130;28;1210;-86
2021/12/02 01:09:13;;;;;;;;;;;;;;;;;;2067262;28;1343;-87
2021/12/02 01:10:23;;;;;;;;;;;;;;;;;;2067354;28;1287;-87
2021/12/02 01:11:33;;;;;;;;;;;;;;;;;;2067758;28;1980;-87
2021/12/02 01:12:39;;;;;;;;;;;;;;;;;;2067529;28;1348;-87
2021/12/02 01:13:43;;;;;;;;;;;;;;;;;;2067309;28;1263;-87
2021/12/02 01:14:54;;;;;;;;;;;;;;;;;;2067095;28;1263;-87
2021/12/02 01:16:07;;;;;;;;;;;;;;;;;;2068548;28;1471;-87
2021/12/02 01:17:09;;;;;;;;;;;;;;;;;;2074719;28;1260;-87
2021/12/02 01:18:12;;;;;;;;;;;;;;;;;;2066973;28;1249;-87
2021/12/02 01:19:16;;;;;;;;;;;;;;;;;;2075214;28;1227;-87
2021/12/02 01:20:18;;;;;;;;;;;;;;;;;;2074704;28;1289;-86
2021/12/02 01:21:21;;;;;;;;;;;;;;;;;;2076355;28;1855;-87
2021/12/02 01:22:33;;;;;;;;;;;;;;;;;;2074369;28;1441;-87
2021/12/02 01:23:46;;;;;;;;;;;;;;;;;;2068913;28;1392;-87
2021/12/02 01:24:51;;;;;;;;;;;;;;;;;;2066354;28;1298;-87
2021/12/02 01:26:01;;;;;;;;;;;;;;;;;;2075746;28;1264;-88
2021/12/02 01:27:12;;;;;;;;;;;;;;;;;;2082248;28;1114;-87
2021/12/02 01:28:17;;;;;;;;;;;;;;;;;;2066569;28;1362;-87
2021/12/02 01:29:19;;;;;;;;;;;;;;;;;;2067347;28;1382;-89
2021/12/02 01:30:20;;;;;;;;;;;;;;;;;;2082676;28;1262;-87
2021/12/02 01:31:29;;;;;;;;;;;;;;;;;;2082953;28;1439;-87
2021/12/02 01:32:42;;;;;;;;;;;;;;;;;;2072962;28;1119;-87
2021/12/02 01:33:43;;;;;;;;;;;;;;;;;;2059848;28;1249;-87
2021/12/02 01:34:48;;;;;;;;;;;;;;;;;;2066303;28;1281;-89
2021/12/02 01:35:52;;;;;;;;;;;;;;;;;;2066866;28;1275;-87
2021/12/02 01:36:58;;;;;;;;;;;;;;;;;;2066925;28;1247;-87
2021/12/02 01:38:01;;;;;;;;;;;;;;;;;;2082741;28;1248;-87
2021/12/02 01:39:04;;;;;;;;;;;;;;;;;;2074517;28;1172;-87
2021/12/02 01:40:08;;;;;;;;;;;;;;;;;;2066175;28;1085;-87
2021/12/02 01:41:19;;;;;;;;;;;;;;;;;;2064728;28;1413;-87
2021/12/02 01:42:24;;;;;;;;;;;;;;;;;;2076006;28;1264;-86
2021/12/02 01:43:42;;;;;;;;;;;;;;;;;;2074508;28;1281;-87
2021/12/02 01:44:44;;;;;;;;;;;;;;;;;;2074606;28;1211;-86
2021/12/02 01:45:45;;;;;;;;;;;;;;;;;;2076678;28;1210;-87
2021/12/02 01:46:47;;;;;;;;;;;;;;;;;;2066542;28;1350;-85
2021/12/02 01:47:52;;;;;;;;;;;;;;;;;;2066622;28;1086;-86
2021/12/02 01:49:01;;;;;;;;;;;;;;;;;;2078151;28;1209;-86
2021/12/02 01:50:05;;;;;;;;;;;;;;;;;;2080803;28;1105;-85
2021/12/02 01:51:07;;;;;;;;;;;;;;;;;;2066446;28;1348;-85
2021/12/02 01:52:10;;;;;;;;;;;;;;;;;;2066478;28;1914;-85
2021/12/02 01:53:14;;;;;;;;;;;;;;;;;;2074805;28;1147;-86
2021/12/02 01:54:17;;;;;;;;;;;;;;;;;;2082623;28;1181;-86
2021/12/02 01:55:22;;;;;;;;;;;;;;;;;;2074634;28;1417;-89
2021/12/02 01:56:28;;;;;;;;;;;;;;;;;;2072742;28;1964;-86
2021/12/02 01:57:31;;;;;;;;;;;;;;;;;;2074454;28;1289;-87
2021/12/02 01:58:41;;;;;;;;;;;;;;;;;;2074538;28;1432;-86
2021/12/02 01:59:48;;;;;;;;;;;;;;;;;;2074943;28;863;-85
2021/12/02 02:00:50;;;;;;;;;;;;;;;;;;2065076;28;1215;-86
2021/12/02 02:01:52;;;;;;;;;;;;;;;;;;2058841;28;1332;-86
2021/12/02 02:02:53;;;;;;;;;;;;;;;;;;2066651;28;1240;-87
2021/12/02 02:03:56;;;;;;;;;;;;;;;;;;2058541;28;1229;-87
2021/12/02 02:05:07;;;;;;;;;;;;;;;;;;2050927;28;1272;-86
2021/12/02 02:06:09;;;;;;;;;;;;;;;;;;2051730;28;1231;-86
2021/12/02 02:07:13;;;;;;;;;;;;;;;;;;2050898;28;1336;-86
2021/12/02 02:08:15;;;;;;;;;;;;;;;;;;2057239;28;1007;-85
2021/12/02 02:09:18;;;;;;;;;;;;;;;;;;2066563;28;1249;-86
2021/12/02 02:10:19;;;;;;;;;;;;;;;;;;2066591;28;812;-90
2021/12/02 02:11:21;;;;;;;;;;;;;;;;;;2065084;28;1340;-86
2021/12/02 02:12:24;;;;;;;;;;;;;;;;;;2051208;28;1974;-86
2021/12/02 02:13:28;;;;;;;;;;;;;;;;;;2074686;28;1299;-86
2021/12/02 02:14:33;;;;;;;;;;;;;;;;;;2074470;28;1342;-86
2021/12/02 02:15:34;;;;;;;;;;;;;;;;;;2067153;28;1268;-86
2021/12/02 02:16:39;;;;;;;;;;;;;;;;;;2066613;28;1407;-85
2021/12/02 02:17:50;;;;;;;;;;;;;;;;;;2067257;28;1368;-86
2021/12/02 02:18:50;;;;;;;;;;;;;;;;;;2075898;28;1293;-86
2021/12/02 02:19:55;;;;;;;;;;;;;;;;;;2082897;28;1056;-87
2021/12/02 02:21:00;;;;;;;;;;;;;;;;;;2083152;28;1326;-86
2021/12/02 02:22:02;;;;;;;;;;;;;;;;;;2074692;28;1475;-86
2021/12/02 02:23:05;;;;;;;;;;;;;;;;;;2066800;28;1337;-85
2021/12/02 02:24:12;;;;;;;;;;;;;;;;;;2066680;28;1212;-86
2021/12/02 02:25:18;;;;;;;;;;;;;;;;;;2075660;28;1410;-86
2021/12/02 02:26:26;;;;;;;;;;;;;;;;;;2081953;28;1184;-86
2021/12/02 02:27:27;;;;;;;;;;;;;;;;;;2067423;28;1333;-87
2021/12/02 02:28:29;;;;;;;;;;;;;;;;;;2074611;28;789;-87
2021/12/02 02:29:31;;;;;;;;;;;;;;;;;;2074651;28;1238;-86
2021/12/02 02:30:35;;;;;;;;;;;;;;;;;;2074213;28;1196;-85
2021/12/02 02:31:37;;;;;;;;;;;;;;;;;;2074672;28;1259;-86
2021/12/02 02:32:38;;;;;;;;;;;;;;;;;;2066444;28;1973;-86
2021/12/02 02:33:40;;;;;;;;;;;;;;;;;;2066404;28;1302;-86
2021/12/02 02:34:41;;;;;;;;;;;;;;;;;;2066415;28;1098;-86
2021/12/02 02:35:43;;;;;;;;;;;;;;;;;;2066560;28;1345;-86
2021/12/02 02:36:51;;;;;;;;;;;;;;;;;;2066257;28;1291;-86
2021/12/02 02:37:53;;;;;;;;;;;;;;;;;;2067537;28;1204;-87
2021/12/02 02:38:58;;;;;;;;;;;;;;;;;;2066917;28;1224;-86
2021/12/02 02:39:59;;;;;;;;;;;;;;;;;;2074675;28;1272;-86
2021/12/02 02:41:05;;;;;;;;;;;;;;;;;;2082237;28;1290;-86
2021/12/02 02:42:08;;;;;;;;;;;;;;;;;;2082592;28;1406;-87
2021/12/02 02:43:11;;;;;;;;;;;;;;;;;;2082532;28;1400;-87
2021/12/02 02:44:13;;;;;;;;;;;;;;;;;;2066412;28;1248;-87
2021/12/02 02:45:15;;;;;;;;;;;;;;;;;;2066612;28;1259;-88
2021/12/02 02:46:20;;;;;;;;;;;;;;;;;;2074161;28;1224;-86
2021/12/02 02:47:25;;;;;;;;;;;;;;;;;;2066738;28;1233;-88
2021/12/02 02:48:26;;;;;;;;;;;;;;;;;;2066787;28;1212;-86
2021/12/02 02:49:28;;;;;;;;;;;;;;;;;;2066284;28;1181;-87
2021/12/02 02:50:32;;;;;;;;;;;;;;;;;;2066183;28;1217;-87
2021/12/02 02:51:34;;;;;;;;;;;;;;;;;;2066664;28;1367;-86
2021/12/02 02:52:39;;;;;;;;;;;;;;;;;;2074300;28;1946;-86
2021/12/02 02:53:42;;;;;;;;;;;;;;;;;;2081989;28;1247;-86
2021/12/02 02:54:43;;;;;;;;;;;;;;;;;;2066440;28;1315;-86
2021/12/02 02:55:56;;;;;;;;;;;;;;;;;;2074652;28;1072;-86
2021/12/02 02:57:01;;;;;;;;;;;;;;;;;;2082866;28;1269;-86
2021/12/02 02:58:18;;;;;;;;;;;;;;;;;;2081891;28;1239;-86
2021/12/02 02:59:28;;;;;;;;;;;;;;;;;;2068728;28;1255;-85
2021/12/02 03:00:33;;;;;;;;;;;;;;;;;;2075457;28;1240;-86
2021/12/02 03:01:51;;;;;;;;;;;;;;;;;;2089699;28;1283;-86
2021/12/02 03:02:59;;;;;;;;;;;;;;;;;;2076615;28;1418;-87
2021/12/02 03:04:07;;;;;;;;;;;;;;;;;;2075123;28;1319;-86
2021/12/02 03:05:20;;;;;;;;;;;;;;;;;;2082700;28;1390;-86
2021/12/02 03:06:29;;;;;;;;;;;;;;;;;;2075764;28;1248;-87
2021/12/02 03:07:35;;;;;;;;;;;;;;;;;;2075700;28;1235;-86
2021/12/02 03:08:41;;;;;;;;;;;;;;;;;;2082917;28;934;-86
2021/12/02 03:09:59;;;;;;;;;;;;;;;;;;2091234;28;1040;-86
2021/12/02 03:11:00;;;;;;;;;;;;;;;;;;2090504;28;1290;-87
2021/12/02 03:12:07;;;;;;;;;;;;;;;;;;2075153;28;1246;-87
2021/12/02 03:13:16;;;;;;;;;;;;;;;;;;2075177;28;955;-86
2021/12/02 03:14:21;;;;;;;;;;;;;;;;;;2074278;28;1256;-87
2021/12/02 03:16:46;;;;;;;;;;;;;;;;;;2076909;28;1261;-86
2021/12/02 03:17:50;;;;;;;;;;;;;;;;;;2074227;28;1336;-86
2021/12/02 03:18:54;;;;;;;;;;;;;;;;;;2074688;28;1311;-86
2021/12/02 03:19:55;;;;;;;;;;;;;;;;;;2074347;28;1414;-86
2021/12/02 03:21:17;;;;;;;;;;;;;;;;;;2075107;28;1253;-86
2021/12/02 03:22:19;;;;;;;;;;;;;;;;;;2074184;28;1319;-86
2021/12/02 03:23:20;;;;;;;;;;;;;;;;;;2074511;28;932;-85
2021/12/02 03:24:24;;;;;;;;;;;;;;;;;;2074316;28;1244;-85
2021/12/02 03:25:25;;;;;;;;;;;;;;;;;;2074313;28;1248;-85
2021/12/02 03:26:32;;;;;;;;;;;;;;;;;;2074269;28;1212;-88
2021/12/02 03:27:33;;;;;;;;;;;;;;;;;;2074449;28;1223;-86
2021/12/02 03:28:38;;;;;;;;;;;;;;;;;;2074324;28;1197;-86
2021/12/02 03:29:44;;;;;;;;;;;;;;;;;;2066663;28;1263;-86
2021/12/02 03:30:48;;;;;;;;;;;;;;;;;;2074009;28;1413;-86
2021/12/02 03:31:49;;;;;;;;;;;;;;;;;;2068320;28;1250;-86
2021/12/02 03:32:58;;;;;;;;;;;;;;;;;;2066414;28;1970;-90
2021/12/02 03:33:59;;;;;;;;;;;;;;;;;;2066175;28;1229;-87
2021/12/02 03:35:09;;;;;;;;;;;;;;;;;;2066206;28;907;-90
2021/12/02 03:36:13;;;;;;;;;;;;;;;;;;2074019;28;1244;-86
2021/12/02 03:37:16;;;;;;;;;;;;;;;;;;2066495;28;1234;-87
2021/12/02 03:38:21;;;;;;;;;;;;;;;;;;2066098;28;1379;-86
2021/12/02 03:39:25;;;;;;;;;;;;;;;;;;2066249;28;1309;-88
2021/12/02 03:40:30;;;;;;;;;;;;;;;;;;2066229;28;1194;-87
2021/12/02 03:41:34;;;;;;;;;;;;;;;;;;2066196;28;1336;-86
2021/12/02 03:42:57;;;;;;;;;;;;;;;;;;2058538;28;1169;-86
2021/12/02 03:43:57;;;;;;;;;;;;;;;;;;2066068;28;1366;-84
2021/12/02 03:44:59;;;;;;;;;;;;;;;;;;2066419;28;1061;-86
2021/12/02 03:46:00;;;;;;;;;;;;;;;;;;2073709;28;1439;-88
2021/12/02 03:47:04;;;;;;;;;;;;;;;;;;2066311;28;1209;-87
2021/12/02 03:48:06;;;;;;;;;;;;;;;;;;2066021;28;1344;-87
2021/12/02 03:49:07;;;;;;;;;;;;;;;;;;2066395;28;1359;-86
2021/12/02 03:50:12;;;;;;;;;;;;;;;;;;2066028;28;1356;-86
2021/12/02 03:51:13;;;;;;;;;;;;;;;;;;2067458;28;1951;-86
2021/12/02 03:52:17;;;;;;;;;;;;;;;;;;2073947;28;1910;-86
2021/12/02 03:53:17;;;;;;;;;;;;;;;;;;2066126;28;1318;-87
2021/12/02 03:54:22;;;;;;;;;;;;;;;;;;2074417;28;989;-85
2021/12/02 03:55:24;;;;;;;;;;;;;;;;;;2082076;28;1389;-85
2021/12/02 03:56:26;;;;;;;;;;;;;;;;;;2065888;28;1340;-85
2021/12/02 03:57:31;;;;;;;;;;;;;;;;;;2066012;28;1336;-85
2021/12/02 03:58:33;;;;;;;;;;;;;;;;;;2066720;28;1365;-86
2021/12/02 03:59:35;;;;;;;;;;;;;;;;;;2075881;28;959;-86
2021/12/02 04:00:35;;;;;;;;;;;;;;;;;;2083727;28;1220;-86
2021/12/02 04:01:40;;;;;;;;;;;;;;;;;;2071530;28;1227;-86
2021/12/02 04:02:41;;;;;;;;;;;;;;;;;;2067873;28;1302;-85
2021/12/02 04:03:42;;;;;;;;;;;;;;;;;;2067596;28;1257;-86
2021/12/02 04:04:43;;;;;;;;;;;;;;;;;;2075293;28;1403;-85
2021/12/02 04:05:45;;;;;;;;;;;;;;;;;;2075870;28;803;-85
2021/12/02 04:06:45;;;;;;;;;;;;;;;;;;2075380;28;1356;-85
2021/12/02 04:07:47;;;;;;;;;;;;;;;;;;2075688;28;1380;-85
2021/12/02 04:08:51;;;;;;;;;;;;;;;;;;2075765;28;1246;-85
2021/12/02 04:09:54;;;;;;;;;;;;;;;;;;2068146;28;1180;-85
2021/12/02 04:11:00;;;;;;;;;;;;;;;;;;2067870;28;1244;-86
2021/12/02 04:12:05;;;;;;;;;;;;;;;;;;2068038;28;1361;-85
2021/12/02 04:13:10;;;;;;;;;;;;;;;;;;2076069;28;1902;-84
2021/12/02 04:14:19;;;;;;;;;;;;;;;;;;2075551;28;1116;-84
2021/12/02 04:15:24;;;;;;;;;;;;;;;;;;2075824;28;1385;-85
2021/12/02 04:16:26;;;;;;;;;;;;;;;;;;2074096;28;765;-85
2021/12/02 04:17:41;;;;;;;;;;;;;;;;;;2067314;28;1279;-86
2021/12/02 04:18:42;;;;;;;;;;;;;;;;;;2069147;28;1192;-85
2021/12/02 04:19:43;;;;;;;;;;;;;;;;;;2067492;28;1365;-85
2021/12/02 04:20:44;;;;;;;;;;;;;;;;;;2067395;28;1318;-84
2021/12/02 04:21:46;;;;;;;;;;;;;;;;;;2067326;28;1339;-85
2021/12/02 04:22:48;;;;;;;;;;;;;;;;;;2067245;28;1255;-85
2021/12/02 04:23:48;;;;;;;;;;;;;;;;;;2059561;28;1318;-85
2021/12/02 04:24:50;;;;;;;;;;;;;;;;;;2067313;28;1085;-84
2021/12/02 04:25:51;;;;;;;;;;;;;;;;;;2067471;28;1213;-85
2021/12/02 04:26:54;;;;;;;;;;;;;;;;;;2065060;28;2096;-85
2021/12/02 04:27:55;;;;;;;;;;;;;;;;;;2067204;28;1261;-86
2021/12/02 04:28:56;;;;;;;;;;;;;;;;;;2075665;28;906;-86
2021/12/02 04:29:57;;;;;;;;;;;;;;;;;;2075400;28;1406;-85
2021/12/02 04:30:59;;;;;;;;;;;;;;;;;;2067514;28;1355;-86
2021/12/02 04:32:01;;;;;;;;;;;;;;;;;;2067311;28;1324;-85
2021/12/02 04:33:01;;;;;;;;;;;;;;;;;;2075175;28;1906;-85
2021/12/02 04:34:03;;;;;;;;;;;;;;;;;;2067278;28;1394;-85
2021/12/02 04:35:06;;;;;;;;;;;;;;;;;;2067434;28;1375;-85
2021/12/02 04:36:11;;;;;;;;;;;;;;;;;;2067231;28;1313;-85
2021/12/02 04:37:12;;;;;;;;;;;;;;;;;;2067903;28;1209;-85
2021/12/02 04:38:13;;;;;;;;;;;;;;;;;;2067212;28;1211;-85
2021/12/02 04:39:40;;;;;;;;;;;;;;;;;;2079198;28;642;-85
2021/12/02 04:40:42;;;;;;;;;;;;;;;;;;2075264;28;1316;-85
2021/12/02 04:41:45;;;;;;;;;;;;;;;;;;2075964;28;828;-85
2021/12/02 04:42:48;;;;;;;;;;;;;;;;;;2075374;28;1412;-85
2021/12/02 04:43:49;;;;;;;;;;;;;;;;;;2075574;28;882;-85
2021/12/02 04:44:50;;;;;;;;;;;;;;;;;;2084043;28;938;-85
2021/12/02 04:45:54;;;;;;;;;;;;;;;;;;2075263;28;1300;-86
2021/12/02 04:46:56;;;;;;;;;;;;;;;;;;2075794;28;1204;-85
2021/12/02 04:47:56;;;;;;;;;;;;;;;;;;2067164;28;1311;-84
2021/12/02 04:49:01;;;;;;;;;;;;;;;;;;2067404;28;1250;-84
2021/12/02 04:50:02;;;;;;;;;;;;;;;;;;2075209;28;1052;-84
2021/12/02 04:51:04;;;;;;;;;;;;;;;;;;2075397;28;1175;-84
2021/12/02 04:52:06;;;;;;;;;;;;;;;;;;2067208;28;1386;-84
2021/12/02 04:53:07;;;;;;;;;;;;;;;;;;2067271;28;1977;-84
2021/12/02 04:54:08;;;;;;;;;;;;;;;;;;2067000;28;1078;-84
2021/12/02 04:55:35;;;;;;;;;;;;;;;;;;2078917;28;905;-84
2021/12/02 04:56:38;;;;;;;;;;;;;;;;;;2075209;28;1245;-84
2021/12/02 04:57:38;;;;;;;;;;;;;;;;;;2075444;28;937;-84
2021/12/02 04:58:41;;;;;;;;;;;;;;;;;;2075202;28;1410;-84
2021/12/02 04:59:42;;;;;;;;;;;;;;;;;;2075344;28;854;-84
2021/12/02 05:00:44;;;;;;;;;;;;;;;;;;2074870;28;1402;-85
2021/12/02 05:01:44;;;;;;;;;;;;;;;;;;2075252;28;1010;-86
2021/12/02 05:02:46;;;;;;;;;;;;;;;;;;2083984;28;863;-85
2021/12/02 05:03:47;;;;;;;;;;;;;;;;;;2083639;28;1378;-84
2021/12/02 05:04:48;;;;;;;;;;;;;;;;;;2083266;28;1239;-85
2021/12/02 05:05:49;;;;;;;;;;;;;;;;;;2075143;28;1288;-85
2021/12/02 05:06:51;;;;;;;;;;;;;;;;;;2074830;28;1189;-85
2021/12/02 05:07:53;;;;;;;;;;;;;;;;;;2075333;28;1292;-85
2021/12/02 05:08:55;;;;;;;;;;;;;;;;;;2067447;28;1315;-86
2021/12/02 05:09:56;;;;;;;;;;;;;;;;;;2066703;28;1261;-89
2021/12/02 05:11:17;;;;;;;;;;;;;;;;;;2067066;28;1272;-89
2021/12/02 05:12:54;;;;;;;;;;;;;;;;;;2069720;28;1521;-87
2021/12/02 05:16:10;;;;;;;;;;;;;;;;;;2063615;28;1285;-86
2021/12/02 05:17:21;;;;;;;;;;;;;;;;;;2078878;28;1377;-86
2021/12/02 05:18:42;;;;;;;;;;;;;;;;;;2085956;28;1135;-87
2021/12/02 05:19:43;;;;;;;;;;;;;;;;;;2075220;28;1446;-86
2021/12/02 05:20:50;;;;;;;;;;;;;;;;;;2067232;28;1499;-87
2021/12/02 05:21:55;;;;;;;;;;;;;;;;;;2075670;28;1223;-87
2021/12/02 05:23:05;;;;;;;;;;;;;;;;;;2075830;28;1240;-87
2021/12/02 05:25:32;;;;;;;;;;;;;;;;;;2083930;28;1425;-89
2021/12/02 05:26:36;;;;;;;;;;;;;;;;;;2090816;28;1361;-87
2021/12/02 05:27:40;;;;;;;;;;;;;;;;;;2066886;28;1433;-86
2021/12/02 05:28:49;;;;;;;;;;;;;;;;;;2059809;28;1237;-90
2021/12/02 05:31:06;;;;;;;;;;;;;;;;;;2081019;28;1343;-86
2021/12/02 05:32:08;;;;;;;;;;;;;;;;;;2074638;28;1264;-86
2021/12/02 05:33:16;;;;;;;;;;;;;;;;;;2082428;28;1910;-88
2021/12/02 05:35:44;;;;;;;;;;;;;;;;;;2078033;28;1338;-86
2021/12/02 05:36:45;;;;;;;;;;;;;;;;;;2082979;28;1231;-86
2021/12/02 05:37:49;;;;;;;;;;;;;;;;;;2075030;28;1351;-86
2021/12/02 05:39:01;;;;;;;;;;;;;;;;;;2082936;28;1277;-88
2021/12/02 05:40:05;;;;;;;;;;;;;;;;;;2082983;28;1394;-86
2021/12/02 05:41:10;;;;;;;;;;;;;;;;;;2083299;28;1318;-86
2021/12/02 05:43:35;;;;;;;;;;;;;;;;;;2057183;28;1394;-87
2021/12/02 05:45:07;;;;;;;;;;;;;;;;;;2059293;28;1258;-88
2021/12/02 05:46:19;;;;;;;;;;;;;;;;;;2060980;28;1872;-89
2021/12/02 05:47:47;;;;;;;;;;;;;;;;;;2068718;28;1179;-88
2021/12/02 05:49:02;;;;;;;;;;;;;;;;;;2065887;28;1343;-88
2021/12/02 05:50:14;;;;;;;;;;;;;;;;;;2065778;28;1263;-87
2021/12/02 05:51:21;;;;;;;;;;;;;;;;;;2073547;28;933;-89
2021/12/02 05:52:55;;;;;;;;;;;;;;;;;;2065516;28;1361;-88
2021/12/02 05:54:04;;;;;;;;;;;;;;;;;;2061593;28;1915;-88
2021/12/02 05:55:06;;;;;;;;;;;;;;;;;;2058336;28;1313;-86
2021/12/02 05:56:07;;;;;;;;;;;;;;;;;;2065673;28;1887;-88
2021/12/02 05:57:16;;;;;;;;;;;;;;;;;;2066452;28;1225;-86
2021/12/02 05:58:30;;;;;;;;;;;;;;;;;;2059022;28;1304;-87
2021/12/02 05:59:44;;;;;;;;;;;;;;;;;;2059321;28;1234;-87
2021/12/02 06:00:49;;;;;;;;;;;;;;;;;;2066224;28;1400;-86
2021/12/02 06:02:00;;;;;;;;;;;;;;;;;;2063714;28;1929;-87
2021/12/02 06:03:05;;;;;;;;;;;;;;;;;;2066791;28;1388;-87
2021/12/02 06:04:13;;;;;;;;;;;;;;;;;;2074011;28;941;-86
2021/12/02 06:05:19;;;;;;;;;;;;;;;;;;2065868;28;1492;-86
2021/12/02 06:06:30;;;;;;;;;;;;;;;;;;2065669;28;1510;-87
2021/12/02 06:07:43;;;;;;;;;;;;;;;;;;2067968;28;1256;-88
2021/12/02 06:08:47;;;;;;;;;;;;;;;;;;2065707;28;1356;-87
2021/12/02 06:09:57;;;;;;;;;;;;;;;;;;2065862;28;1271;-86
2021/12/02 06:11:26;;;;;;;;;;;;;;;;;;2059816;28;1394;-88
2021/12/02 06:12:39;;;;;;;;;;;;;;;;;;2069067;28;1347;-87
2021/12/02 06:13:46;;;;;;;;;;;;;;;;;;2074120;28;1910;-86
2021/12/02 06:15:05;;;;;;;;;;;;;;;;;;2074592;28;1189;-87
2021/12/02 06:16:20;;;;;;;;;;;;;;;;;;2065680;28;1275;-88
2021/12/02 06:17:42;;;;;;;;;;;;;;;;;;2059128;28;1237;-86
2021/12/02 06:19:01;;;;;;;;;;;;;;;;;;2067387;28;1018;-87
2021/12/02 06:20:18;;;;;;;;;;;;;;;;;;2074182;28;1207;-87
2021/12/02 06:21:37;;;;;;;;;;;;;;;;;;2064991;28;1870;-87
2021/12/02 06:23:08;;;;;;;;;;;;;;;;;;2065594;28;1391;-85
2021/12/02 06:24:11;;;;;;;;;;;;;;;;;;2065129;28;1422;-94
2021/12/02 06:31:56;;;;;;;;;;;;;;;;;;2047327;28;1867;-86
2021/12/02 06:33:18;;;;;;;;;;;;;;;;;;2035916;29;1234;-85
2021/12/02 06:34:24;;;;;;;;;;;;;;;;;;2042989;29;2001;-86
2021/12/02 06:35:28;;;;;;;;;;;;;;;;;;2050716;28;1109;-88
2021/12/02 06:36:37;;;;;;;;;;;;;;;;;;2057743;28;1208;-85
2021/12/02 06:37:41;;;;;;;;;;;;;;;;;;2066297;28;1245;-87
2021/12/02 06:38:45;;;;;;;;;;;;;;;;;;2058008;28;1394;-86
2021/12/02 06:39:46;;;;;;;;;;;;;;;;;;2066703;28;1260;-85
2021/12/02 06:40:48;;;;;;;;;;;;;;;;;;2074301;28;1111;-86
2021/12/02 06:41:49;;;;;;;;;;;;;;;;;;2074760;28;1035;-85
2021/12/02 06:43:09;;;;;;;;;;;;;;;;;;2074695;28;812;-86
2021/12/02 06:44:17;;;;;;;;;;;;;;;;;;2066005;28;1169;-86
2021/12/02 06:45:21;;;;;;;;;;;;;;;;;;2059343;28;1411;-85
2021/12/02 06:46:23;;;;;;;;;;;;;;;;;;2057937;28;1247;-87
2021/12/02 10:53:27;;;;;;;;;;;;;;;;;;2058365;28;1073;-85
2021/12/02 10:55:18;;;;;;;;;;;;;;;;;;2049615;29;1276;-85
2021/12/02 10:56:36;;;;;;;;;;;;;;;;;;2026788;28;1131;-86
2021/12/02 10:58:03;;;;;;;;;;;;;;;;;;2048455;29;1417;-85
2021/12/02 10:59:27;;;;;;;;;;;;;;;;;;2056797;28;1177;-84
2021/12/02 11:17:36;;;;;;;;;;;;;;;;;;2034055;29;1041;-85
2021/12/02 11:47:53;;;;;;;;;;;;;;;;;;2073427;28;1889;-85
2021/12/02 11:59:24;;;;;;;;;;;;;;;;;;2017750;29;1301;-84
2021/12/02 12:10:55;;;;;;;;;;;;;;;;;;1966290;30;1297;-85
2021/12/02 12:12:21;;;;;;;;;;;;;;;;;;;;;
2021/12/02 12:18:41;;;;;;;;;;;;;;;;;;;;;
2021/12/02 13:36:14;;;;;;;;;;;;;;;;;;2026797;29;1625;-86
2021/12/02 13:45:27;;;;;;;;;;;;;;;;;;1988632;29;645;-86
2021/12/02 13:57:17;;;;;;;;;;;;;;;;;;1997092;29;1317;-84
2021/12/02 14:42:35;;;;;;;;;;;;;;;;;;2023478;29;1276;-84
2021/12/02 14:44:03;;;;;;;;;;;;;;;;;;2025600;29;1452;-84
2021/12/02 15:03:24;;;;;;;;;;;;;;;;;;2031789;29;1386;-84
2021/12/02 15:04:41;;;;;;;;;;;;;;;;;;2042026;29;1321;-83
2021/12/02 15:15:21;;;;;;;;;;;;;;;;;;1997699;29;1965;-84
2021/12/02 15:16:51;;;;;;;;;;;;;;;;;;1999834;29;1839;-84
2021/12/02 15:23:55;;;;;;;;;;;;;;;;;;2012176;29;1376;-84
2021/12/02 15:25:19;;;;;;;;;;;;;;;;;;2049252;28;1235;-85
2021/12/02 15:32:36;;;;;;;;;;;;;;;;;;2063201;28;1207;-81
2021/12/02 15:33:44;;;;;;;;;;;;;;;;;;2054292;28;1335;-83
2021/12/02 15:34:47;;;;;;;;;;;;;;;;;;2052436;28;1980;-83
2021/12/02 15:36:02;;;;;;;;;;;;;;;;;;2054589;28;1773;-83
2021/12/02 15:37:06;;;;;;;;;;;;;;;;;;2062999;28;1668;-82
2021/12/02 15:38:09;;;;;;;;;;;;;;;;;;2060186;28;1432;-83
2021/12/02 15:39:15;;;;;;;;;;;;;;;;;;2063128;28;1653;-83
2021/12/02 15:40:15;;;;;;;;;;;;;;;;;;2061242;28;1432;-82
2021/12/02 15:41:32;;;;;;;;;;;;;;;;;;2065354;28;1898;-84
2021/12/02 15:42:33;;;;;;;;;;;;;;;;;;2068977;28;1369;-82
2021/12/02 15:43:46;;;;;;;;;;;;;;;;;;2061304;28;1408;-82
2021/12/02 15:45:11;;;;;;;;;;;;;;;;;;2060908;28;1357;-83
2021/12/02 15:46:14;;;;;;;;;;;;;;;;;;2060833;28;1444;-82
2021/12/02 15:47:42;;;;;;;;;;;;;;;;;;2058056;28;1674;-85
2021/12/02 15:48:52;;;;;;;;;;;;;;;;;;2065868;28;1176;-82
2021/12/02 15:49:59;;;;;;;;;;;;;;;;;;2065911;28;1309;-82
2021/12/02 15:51:02;;;;;;;;;;;;;;;;;;2066221;28;1629;-80
2021/12/02 15:52:05;;;;;;;;;;;;;;;;;;2073158;28;1718;-82
2021/12/02 15:53:12;;;;;;;;;;;;;;;;;;2062738;28;1376;-82
2021/12/02 15:54:14;;;;;;;;;;;;;;;;;;2066250;28;1301;-83
2021/12/02 15:55:16;;;;;;;;;;;;;;;;;;2059268;28;1914;-82
2021/12/02 15:56:19;;;;;;;;;;;;;;;;;;2064337;28;1952;-82
2021/12/02 15:57:20;;;;;;;;;;;;;;;;;;2062947;28;1906;-82
2021/12/02 15:58:22;;;;;;;;;;;;;;;;;;2061031;28;1345;-81
2021/12/02 15:59:25;;;;;;;;;;;;;;;;;;2067293;28;1448;-82
2021/12/02 16:00:26;;;;;;;;;;;;;;;;;;2061904;28;1541;-81
2021/12/02 16:01:30;;;;;;;;;;;;;;;;;;2069691;28;1798;-81
2021/12/02 16:02:35;;;;;;;;;;;;;;;;;;2066811;28;1227;-82
2021/12/02 16:03:39;;;;;;;;;;;;;;;;;;2067354;28;1265;-82
2021/12/02 16:04:47;;;;;;;;;;;;;;;;;;2064554;28;1633;-82
2021/12/02 16:07:08;;;;;;;;;;;;;;;;;;2064340;28;1971;-81
2021/12/02 16:08:16;;;;;;;;;;;;;;;;;;2072933;28;1360;-82
2021/12/02 16:09:30;;;;;;;;;;;;;;;;;;2070796;28;1741;-83
2021/12/02 16:12:04;;;;;;;;;;;;;;;;;;2060945;28;1853;-83
2021/12/02 16:13:05;;;;;;;;;;;;;;;;;;2062429;28;1357;-84
2021/12/02 16:14:07;;;;;;;;;;;;;;;;;;2071751;28;1404;-83
2021/12/02 16:15:09;;;;;;;;;;;;;;;;;;2066720;28;1911;-83
2021/12/02 16:16:12;;;;;;;;;;;;;;;;;;2064514;28;1660;-82
2021/12/02 16:17:14;;;;;;;;;;;;;;;;;;2068646;28;1551;-82
2021/12/02 16:18:14;;;;;;;;;;;;;;;;;;2074871;28;1619;-82